sensor_id;sensor_type;location;lat;lon;timestamp;pressure;altitude;pressure_sealevel;temperature;humidity
52032;BME280;38044;45.148;39.604;2023-04-30T00:00:22;100542.81;;;10.22;85.57
52032;BME280;38044;45.148;39.604;2023-04-30T00:02:47;100459.91;;;9.73;85.23
52032;BME280;38044;45.148;39.604;2023-04-30T00:05:13;100518.50;;;10.13;85.62
52032;BME280;38044;45.148;39.604;2023-04-30T00:07:40;100474.88;;;9.79;86.02
52032;BME280;38044;45.148;39.604;2023-04-30T00:10:10;100355.13;;;8.92;86.45
52032;BME280;38044;45.148;39.604;2023-04-30T00:12:36;100496.81;;;9.62;86.87
52032;BME280;38044;45.148;39.604;2023-04-30T00:15:03;100481.19;;;9.45;87.49
52032;BME280;38044;45.148;39.604;2023-04-30T00:17:29;100507.31;;;9.58;87.97
52032;BME280;38044;45.148;39.604;2023-04-30T00:19:55;100368.78;;;8.66;87.69
52032;BME280;38044;45.148;39.604;2023-04-30T00:22:20;100494.53;;;9.50;87.86
52032;BME280;38044;45.148;39.604;2023-04-30T00:24:47;100538.28;;;9.75;87.84
52032;BME280;38044;45.148;39.604;2023-04-30T00:27:12;100547.81;;;9.86;87.55
52032;BME280;38044;45.148;39.604;2023-04-30T00:29:38;100438.53;;;9.19;87.41
52032;BME280;38044;45.148;39.604;2023-04-30T00:32:04;100419.84;;;9.09;87.07
52032;BME280;38044;45.148;39.604;2023-04-30T00:34:30;100537.59;;;9.88;87.02
52032;BME280;38044;45.148;39.604;2023-04-30T00:36:57;100588.31;;;10.13;87.27
52032;BME280;38044;45.148;39.604;2023-04-30T00:39:26;100486.31;;;9.65;86.76
52032;BME280;38044;45.148;39.604;2023-04-30T00:41:52;100525.13;;;9.97;86.65
52032;BME280;38044;45.148;39.604;2023-04-30T00:44:25;100542.28;;;10.20;86.49
52032;BME280;38044;45.148;39.604;2023-04-30T00:47:03;100545.78;;;10.21;86.31
52032;BME280;38044;45.148;39.604;2023-04-30T00:49:32;100562.53;;;10.36;86.30
52032;BME280;38044;45.148;39.604;2023-04-30T00:51:58;100509.91;;;10.11;86.28
52032;BME280;38044;45.148;39.604;2023-04-30T00:54:24;100551.16;;;10.45;85.91
52032;BME280;38044;45.148;39.604;2023-04-30T00:56:50;100521.53;;;10.26;85.94
52032;BME280;38044;45.148;39.604;2023-04-30T00:59:16;100506.28;;;10.21;85.78
52032;BME280;38044;45.148;39.604;2023-04-30T01:01:42;100545.19;;;10.48;85.88
52032;BME280;38044;45.148;39.604;2023-04-30T01:04:08;100534.44;;;10.48;85.88
52032;BME280;38044;45.148;39.604;2023-04-30T01:06:35;100534.50;;;10.43;86.07
52032;BME280;38044;45.148;39.604;2023-04-30T01:09:01;100536.34;;;10.47;86.25
52032;BME280;38044;45.148;39.604;2023-04-30T01:14:37;100530.88;;;10.52;86.36
52032;BME280;38044;45.148;39.604;2023-04-30T01:17:16;100535.06;;;10.58;86.16
52032;BME280;38044;45.148;39.604;2023-04-30T01:19:46;100405.16;;;9.74;85.91
52032;BME280;38044;45.148;39.604;2023-04-30T01:25:06;100495.44;;;10.50;86.28
52032;BME280;38044;45.148;39.604;2023-04-30T01:30:32;100358.34;;;9.42;86.42
52032;BME280;38044;45.148;39.604;2023-04-30T01:32:59;100501.66;;;10.27;86.50
52032;BME280;38044;45.148;39.604;2023-04-30T01:40:49;100394.16;;;9.51;87.15
52032;BME280;38044;45.148;39.604;2023-04-30T01:43:42;100484.84;;;9.97;87.35
52032;BME280;38044;45.148;39.604;2023-04-30T01:46:37;100510.91;;;10.15;87.37
52032;BME280;38044;45.148;39.604;2023-04-30T01:49:18;100505.13;;;10.08;87.34
52032;BME280;38044;45.148;39.604;2023-04-30T01:51:54;100502.50;;;10.03;87.11
52032;BME280;38044;45.148;39.604;2023-04-30T01:54:30;100365.88;;;9.16;87.11
52032;BME280;38044;45.148;39.604;2023-04-30T01:57:05;100416.47;;;9.46;87.39
52032;BME280;38044;45.148;39.604;2023-04-30T01:59:37;100506.84;;;9.99;87.28
52032;BME280;38044;45.148;39.604;2023-04-30T02:02:04;100504.22;;;9.94;87.36
52032;BME280;38044;45.148;39.604;2023-04-30T02:04:30;100478.41;;;9.74;87.24
52032;BME280;38044;45.148;39.604;2023-04-30T02:06:57;100479.78;;;9.72;87.25
52032;BME280;38044;45.148;39.604;2023-04-30T02:09:23;100472.31;;;9.68;87.55
52032;BME280;38044;45.148;39.604;2023-04-30T02:11:49;100372.09;;;9.11;87.49
52032;BME280;38044;45.148;39.604;2023-04-30T02:14:15;100448.56;;;9.57;87.42
52032;BME280;38044;45.148;39.604;2023-04-30T02:16:41;100510.13;;;9.96;87.65
52032;BME280;38044;45.148;39.604;2023-04-30T02:19:07;100484.47;;;9.85;87.56
52032;BME280;38044;45.148;39.604;2023-04-30T02:21:33;100512.22;;;9.99;87.56
52032;BME280;38044;45.148;39.604;2023-04-30T02:23:59;100503.19;;;9.90;87.48
52032;BME280;38044;45.148;39.604;2023-04-30T02:26:25;100475.22;;;9.72;87.32
52032;BME280;38044;45.148;39.604;2023-04-30T02:28:51;100508.84;;;9.88;87.67
52032;BME280;38044;45.148;39.604;2023-04-30T02:31:17;100467.47;;;9.70;87.47
52032;BME280;38044;45.148;39.604;2023-04-30T02:33:43;100501.59;;;9.89;87.26
52032;BME280;38044;45.148;39.604;2023-04-30T02:36:08;100388.72;;;9.13;87.13
52032;BME280;38044;45.148;39.604;2023-04-30T02:38:34;100419.19;;;9.22;87.08
52032;BME280;38044;45.148;39.604;2023-04-30T02:41:00;100576.59;;;10.04;86.91
52032;BME280;38044;45.148;39.604;2023-04-30T02:43:26;100523.72;;;9.81;87.69
52032;BME280;38044;45.148;39.604;2023-04-30T02:45:52;100559.47;;;10.00;87.22
52032;BME280;38044;45.148;39.604;2023-04-30T02:48:18;100582.16;;;10.13;87.28
52032;BME280;38044;45.148;39.604;2023-04-30T02:50:44;100569.44;;;10.19;86.98
52032;BME280;38044;45.148;39.604;2023-04-30T02:53:09;100388.94;;;8.93;86.90
52032;BME280;38044;45.148;39.604;2023-04-30T02:55:35;100582.69;;;10.10;86.66
52032;BME280;38044;45.148;39.604;2023-04-30T02:58:01;100566.09;;;10.08;86.54
52032;BME280;38044;45.148;39.604;2023-04-30T03:00:27;100570.00;;;10.15;86.41
52032;BME280;38044;45.148;39.604;2023-04-30T03:02:53;100557.78;;;10.04;86.42
52032;BME280;38044;45.148;39.604;2023-04-30T03:05:19;100578.50;;;10.28;86.28
52032;BME280;38044;45.148;39.604;2023-04-30T03:07:44;100571.97;;;10.34;86.34
52032;BME280;38044;45.148;39.604;2023-04-30T03:10:10;100447.84;;;9.51;85.85
52032;BME280;38044;45.148;39.604;2023-04-30T03:12:36;100593.00;;;10.51;85.60
52032;BME280;38044;45.148;39.604;2023-04-30T03:15:02;100590.09;;;10.47;85.19
52032;BME280;38044;45.148;39.604;2023-04-30T03:17:28;100474.31;;;9.82;84.55
52032;BME280;38044;45.148;39.604;2023-04-30T03:19:54;100442.72;;;9.74;84.55
52032;BME280;38044;45.148;39.604;2023-04-30T03:22:20;100579.53;;;10.70;84.59
52032;BME280;38044;45.148;39.604;2023-04-30T03:24:48;100566.34;;;10.73;84.33
52032;BME280;38044;45.148;39.604;2023-04-30T03:27:14;100521.81;;;10.48;84.06
52032;BME280;38044;45.148;39.604;2023-04-30T03:29:41;100546.88;;;10.63;83.93
52032;BME280;38044;45.148;39.604;2023-04-30T03:32:07;100584.84;;;10.94;83.79
52032;BME280;38044;45.148;39.604;2023-04-30T03:34:33;100592.75;;;11.04;83.65
52032;BME280;38044;45.148;39.604;2023-04-30T03:36:59;100490.13;;;10.45;83.17
52032;BME280;38044;45.148;39.604;2023-04-30T03:39:26;100595.13;;;11.24;83.24
52032;BME280;38044;45.148;39.604;2023-04-30T03:41:52;100596.34;;;11.32;83.03
52032;BME280;38044;45.148;39.604;2023-04-30T03:44:18;100600.53;;;11.38;81.99
52032;BME280;38044;45.148;39.604;2023-04-30T03:46:44;100601.19;;;11.49;81.88
52032;BME280;38044;45.148;39.604;2023-04-30T03:49:11;100580.22;;;11.46;81.38
52032;BME280;38044;45.148;39.604;2023-04-30T03:51:37;100544.94;;;11.34;81.23
52032;BME280;38044;45.148;39.604;2023-04-30T03:54:06;100589.34;;;11.64;80.74
52032;BME280;38044;45.148;39.604;2023-04-30T03:56:33;100586.03;;;11.67;80.63
52032;BME280;38044;45.148;39.604;2023-04-30T03:58:59;100557.31;;;11.48;80.50
52032;BME280;38044;45.148;39.604;2023-04-30T04:01:25;100584.66;;;11.69;80.49
52032;BME280;38044;45.148;39.604;2023-04-30T04:03:52;100594.03;;;11.72;80.53
52032;BME280;38044;45.148;39.604;2023-04-30T04:06:18;100447.06;;;10.83;80.53
52032;BME280;38044;45.148;39.604;2023-04-30T04:08:44;100480.28;;;11.06;80.30
52032;BME280;38044;45.148;39.604;2023-04-30T04:11:10;100553.16;;;11.56;80.23
52032;BME280;38044;45.148;39.604;2023-04-30T04:13:36;100563.50;;;11.63;80.52
52032;BME280;38044;45.148;39.604;2023-04-30T04:16:02;100567.31;;;11.76;80.98
52032;BME280;38044;45.148;39.604;2023-04-30T04:18:28;100574.31;;;11.77;81.04
52032;BME280;38044;45.148;39.604;2023-04-30T04:20:55;100581.47;;;11.81;80.30
52032;BME280;38044;45.148;39.604;2023-04-30T04:23:21;100567.72;;;11.69;80.10
52032;BME280;38044;45.148;39.604;2023-04-30T04:25:47;100575.59;;;11.79;80.50
52032;BME280;38044;45.148;39.604;2023-04-30T04:28:16;100570.91;;;11.71;80.82
52032;BME280;38044;45.148;39.604;2023-04-30T04:30:42;100471.34;;;11.11;80.44
52032;BME280;38044;45.148;39.604;2023-04-30T04:33:08;100555.84;;;11.56;80.09
52032;BME280;38044;45.148;39.604;2023-04-30T04:35:35;100598.09;;;11.88;80.35
52032;BME280;38044;45.148;39.604;2023-04-30T04:38:01;100422.28;;;10.86;80.16
52032;BME280;38044;45.148;39.604;2023-04-30T04:40:27;100572.22;;;11.87;79.59
52032;BME280;38044;45.148;39.604;2023-04-30T04:42:53;100609.44;;;12.13;79.21
52032;BME280;38044;45.148;39.604;2023-04-30T04:45:20;100592.91;;;12.06;78.68
52032;BME280;38044;45.148;39.604;2023-04-30T04:47:46;100554.06;;;11.93;78.97
52032;BME280;38044;45.148;39.604;2023-04-30T04:50:13;100597.69;;;12.23;78.54
52032;BME280;38044;45.148;39.604;2023-04-30T04:52:39;100603.25;;;12.26;78.25
52032;BME280;38044;45.148;39.604;2023-04-30T04:55:05;100612.84;;;12.32;78.12
52032;BME280;38044;45.148;39.604;2023-04-30T04:57:32;100598.28;;;12.33;77.42
52032;BME280;38044;45.148;39.604;2023-04-30T04:59:58;100579.41;;;12.20;77.43
52032;BME280;38044;45.148;39.604;2023-04-30T05:02:23;100584.66;;;12.38;77.69
52032;BME280;38044;45.148;39.604;2023-04-30T05:04:49;100587.38;;;12.38;77.65
52032;BME280;38044;45.148;39.604;2023-04-30T05:07:16;100548.47;;;12.17;77.46
52032;BME280;38044;45.148;39.604;2023-04-30T05:09:44;100514.84;;;12.01;77.20
52032;BME280;38044;45.148;39.604;2023-04-30T05:12:11;100570.72;;;12.36;77.14
52032;BME280;38044;45.148;39.604;2023-04-30T05:14:37;100577.69;;;12.51;76.79
52032;BME280;38044;45.148;39.604;2023-04-30T05:17:03;100588.28;;;12.48;77.01
52032;BME280;38044;45.148;39.604;2023-04-30T05:19:28;100583.06;;;12.51;76.88
52032;BME280;38044;45.148;39.604;2023-04-30T05:21:55;100524.50;;;12.15;76.65
52032;BME280;38044;45.148;39.604;2023-04-30T05:24:20;100548.84;;;12.38;77.18
52032;BME280;38044;45.148;39.604;2023-04-30T05:26:46;100578.66;;;12.55;77.25
52032;BME280;38044;45.148;39.604;2023-04-30T05:29:12;100472.06;;;11.99;76.97
52032;BME280;38044;45.148;39.604;2023-04-30T05:31:38;100576.78;;;12.78;76.32
52032;BME280;38044;45.148;39.604;2023-04-30T05:34:04;100454.00;;;12.00;75.56
52032;BME280;38044;45.148;39.604;2023-04-30T05:36:30;100539.25;;;12.46;74.51
52032;BME280;38044;45.148;39.604;2023-04-30T05:38:56;100544.75;;;12.40;75.32
52032;BME280;38044;45.148;39.604;2023-04-30T05:41:22;100530.38;;;12.31;75.29
52032;BME280;38044;45.148;39.604;2023-04-30T05:43:48;100604.00;;;12.68;75.67
52032;BME280;38044;45.148;39.604;2023-04-30T05:46:15;100594.47;;;12.48;75.22
52032;BME280;38044;45.148;39.604;2023-04-30T05:48:42;100606.25;;;12.38;75.08
52032;BME280;38044;45.148;39.604;2023-04-30T05:51:08;100611.94;;;12.23;76.25
52032;BME280;38044;45.148;39.604;2023-04-30T05:53:35;100513.03;;;11.55;75.90
52032;BME280;38044;45.148;39.604;2023-04-30T05:56:00;100575.94;;;11.91;76.45
52032;BME280;38044;45.148;39.604;2023-04-30T05:58:27;100617.03;;;11.97;76.47
52032;BME280;38044;45.148;39.604;2023-04-30T06:00:53;100624.81;;;11.99;76.17
52032;BME280;38044;45.148;39.604;2023-04-30T06:03:18;100630.41;;;11.88;77.02
52032;BME280;38044;45.148;39.604;2023-04-30T06:05:45;100614.91;;;11.80;77.01
52032;BME280;38044;45.148;39.604;2023-04-30T06:08:12;100595.44;;;11.69;78.19
52032;BME280;38044;45.148;39.604;2023-04-30T06:10:38;100481.28;;;11.10;78.19
52032;BME280;38044;45.148;39.604;2023-04-30T06:13:05;100603.47;;;12.02;78.41
52032;BME280;38044;45.148;39.604;2023-04-30T06:15:30;100606.06;;;12.21;78.33
52032;BME280;38044;45.148;39.604;2023-04-30T06:17:57;100637.00;;;12.51;78.00
52032;BME280;38044;45.148;39.604;2023-04-30T06:20:22;100646.47;;;12.62;77.76
52032;BME280;38044;45.148;39.604;2023-04-30T06:22:48;100631.06;;;12.63;78.07
52032;BME280;38044;45.148;39.604;2023-04-30T06:25:14;100643.94;;;12.80;77.47
52032;BME280;38044;45.148;39.604;2023-04-30T06:27:40;100518.56;;;12.05;77.48
52032;BME280;38044;45.148;39.604;2023-04-30T06:30:06;100523.63;;;12.20;77.77
52032;BME280;38044;45.148;39.604;2023-04-30T06:32:33;100614.19;;;12.71;77.17
52032;BME280;38044;45.148;39.604;2023-04-30T06:34:59;100521.63;;;12.12;77.49
52032;BME280;38044;45.148;39.604;2023-04-30T06:37:25;100650.91;;;12.81;77.88
52032;BME280;38044;45.148;39.604;2023-04-30T06:39:50;100675.28;;;12.90;78.36
52032;BME280;38044;45.148;39.604;2023-04-30T06:42:16;100679.69;;;12.85;78.19
52032;BME280;38044;45.148;39.604;2023-04-30T06:44:42;100673.88;;;12.78;78.58
52032;BME280;38044;45.148;39.604;2023-04-30T06:47:08;100559.78;;;12.05;78.63
52032;BME280;38044;45.148;39.604;2023-04-30T06:49:34;100555.78;;;12.03;77.92
52032;BME280;38044;45.148;39.604;2023-04-30T06:51:59;100687.47;;;12.87;77.88
52032;BME280;38044;45.148;39.604;2023-04-30T06:54:26;100696.75;;;12.95;78.11
52032;BME280;38044;45.148;39.604;2023-04-30T06:56:52;100673.69;;;12.89;78.03
52032;BME280;38044;45.148;39.604;2023-04-30T06:59:18;100692.00;;;13.14;77.58
52032;BME280;38044;45.148;39.604;2023-04-30T07:01:44;100695.00;;;13.26;77.18
52032;BME280;38044;45.148;39.604;2023-04-30T07:04:10;100611.09;;;13.00;76.25
52032;BME280;38044;45.148;39.604;2023-04-30T07:06:36;100698.56;;;13.58;76.08
52032;BME280;38044;45.148;39.604;2023-04-30T07:09:02;100583.06;;;13.10;75.54
52032;BME280;38044;45.148;39.604;2023-04-30T07:11:28;100675.97;;;13.77;74.41
52032;BME280;38044;45.148;39.604;2023-04-30T07:13:54;100555.41;;;13.27;73.30
52032;BME280;38044;45.148;39.604;2023-04-30T07:16:20;100537.97;;;13.33;73.24
52032;BME280;38044;45.148;39.604;2023-04-30T07:18:46;100682.38;;;14.60;71.90
52032;BME280;38044;45.148;39.604;2023-04-30T07:21:13;100659.19;;;14.94;71.81
52032;BME280;38044;45.148;39.604;2023-04-30T07:23:40;100577.97;;;15.12;68.92
52032;BME280;38044;45.148;39.604;2023-04-30T07:26:07;100620.66;;;16.26;66.82
52032;BME280;38044;45.148;39.604;2023-04-30T07:28:32;100675.94;;;17.68;64.38
52032;BME280;38044;45.148;39.604;2023-04-30T07:30:58;100680.03;;;18.69;60.59
52032;BME280;38044;45.148;39.604;2023-04-30T07:33:25;100691.03;;;19.25;58.53
52032;BME280;38044;45.148;39.604;2023-04-30T07:35:50;100683.47;;;19.63;57.76
52032;BME280;38044;45.148;39.604;2023-04-30T07:38:16;100687.91;;;19.39;58.31
52032;BME280;38044;45.148;39.604;2023-04-30T07:40:43;100675.16;;;18.87;58.74
52032;BME280;38044;45.148;39.604;2023-04-30T07:43:09;100686.88;;;19.16;56.23
52032;BME280;38044;45.148;39.604;2023-04-30T07:45:36;100693.88;;;18.76;57.60
52032;BME280;38044;45.148;39.604;2023-04-30T07:48:02;100697.88;;;18.54;57.90
52032;BME280;38044;45.148;39.604;2023-04-30T07:50:30;100673.38;;;18.17;58.34
52032;BME280;38044;45.148;39.604;2023-04-30T07:52:58;100665.53;;;18.77;59.37
52032;BME280;38044;45.148;39.604;2023-04-30T07:55:25;100708.44;;;19.21;58.96
52032;BME280;38044;45.148;39.604;2023-04-30T07:57:51;100683.53;;;18.69;60.36
52032;BME280;38044;45.148;39.604;2023-04-30T08:00:16;100698.75;;;18.34;59.87
52032;BME280;38044;45.148;39.604;2023-04-30T08:02:42;100695.34;;;18.12;59.70
52032;BME280;38044;45.148;39.604;2023-04-30T08:05:10;100665.88;;;18.14;59.40
52032;BME280;38044;45.148;39.604;2023-04-30T08:07:36;100634.81;;;18.28;57.61
52032;BME280;38044;45.148;39.604;2023-04-30T08:10:02;100697.53;;;19.21;57.17
52032;BME280;38044;45.148;39.604;2023-04-30T08:12:28;100695.44;;;19.30;54.90
52032;BME280;38044;45.148;39.604;2023-04-30T08:15:02;100569.47;;;18.52;56.94
52032;BME280;38044;45.148;39.604;2023-04-30T08:17:29;100698.06;;;18.98;56.14
52032;BME280;38044;45.148;39.604;2023-04-30T08:19:55;100685.38;;;18.78;54.71
52032;BME280;38044;45.148;39.604;2023-04-30T08:22:22;100585.41;;;17.89;56.26
52032;BME280;38044;45.148;39.604;2023-04-30T08:24:48;100696.56;;;18.88;56.38
52032;BME280;38044;45.148;39.604;2023-04-30T08:27:14;100579.56;;;18.39;55.46
52032;BME280;38044;45.148;39.604;2023-04-30T08:29:40;100706.81;;;19.32;55.82
52032;BME280;38044;45.148;39.604;2023-04-30T08:32:06;100701.13;;;19.25;55.81
52032;BME280;38044;45.148;39.604;2023-04-30T08:34:33;100679.63;;;19.07;55.92
52032;BME280;38044;45.148;39.604;2023-04-30T08:36:59;100564.34;;;17.86;55.36
52032;BME280;38044;45.148;39.604;2023-04-30T08:39:26;100695.69;;;18.48;55.93
52032;BME280;38044;45.148;39.604;2023-04-30T08:41:55;100699.56;;;19.24;55.81
52032;BME280;38044;45.148;39.604;2023-04-30T08:44:22;100668.25;;;19.18;55.53
52032;BME280;38044;45.148;39.604;2023-04-30T08:46:53;100612.66;;;18.78;54.76
52032;BME280;38044;45.148;39.604;2023-04-30T08:49:22;100695.50;;;18.77;55.34
52032;BME280;38044;45.148;39.604;2023-04-30T08:51:48;100684.25;;;18.17;57.47
52032;BME280;38044;45.148;39.604;2023-04-30T08:54:14;100689.84;;;17.88;58.51
52032;BME280;38044;45.148;39.604;2023-04-30T08:56:43;100601.09;;;17.25;59.09
52032;BME280;38044;45.148;39.604;2023-04-30T08:59:10;100663.00;;;18.60;57.94
52032;BME280;38044;45.148;39.604;2023-04-30T09:01:37;100692.38;;;19.03;56.20
52032;BME280;38044;45.148;39.604;2023-04-30T09:04:04;100633.97;;;18.76;57.42
52032;BME280;38044;45.148;39.604;2023-04-30T09:06:30;100694.03;;;19.08;56.12
52032;BME280;38044;45.148;39.604;2023-04-30T09:08:56;100676.72;;;19.00;55.89
52032;BME280;38044;45.148;39.604;2023-04-30T09:13:54;100675.16;;;18.50;58.07
52032;BME280;38044;45.148;39.604;2023-04-30T09:16:20;100685.59;;;18.36;57.84
52032;BME280;38044;45.148;39.604;2023-04-30T09:18:47;100696.97;;;19.15;56.71
52032;BME280;38044;45.148;39.604;2023-04-30T09:21:13;100701.47;;;19.51;55.79
52032;BME280;38044;45.148;39.604;2023-04-30T09:23:56;100650.53;;;19.68;54.27
52032;BME280;38044;45.148;39.604;2023-04-30T09:26:25;100684.34;;;19.79;55.21
52032;BME280;38044;45.148;39.604;2023-04-30T09:28:56;100695.06;;;19.44;55.34
52032;BME280;38044;45.148;39.604;2023-04-30T09:31:23;100556.97;;;18.63;55.18
52032;BME280;38044;45.148;39.604;2023-04-30T09:33:49;100683.28;;;20.31;55.25
52032;BME280;38044;45.148;39.604;2023-04-30T09:36:15;100681.59;;;20.93;53.10
52032;BME280;38044;45.148;39.604;2023-04-30T09:38:41;100693.56;;;21.24;51.61
52032;BME280;38044;45.148;39.604;2023-04-30T09:41:23;100575.31;;;20.88;49.79
52032;BME280;38044;45.148;39.604;2023-04-30T09:43:50;100582.31;;;21.28;50.59
52032;BME280;38044;45.148;39.604;2023-04-30T09:46:18;100657.94;;;22.55;48.40
52032;BME280;38044;45.148;39.604;2023-04-30T09:48:45;100668.38;;;22.73;48.75
52032;BME280;38044;45.148;39.604;2023-04-30T09:51:11;100687.94;;;23.35;48.55
52032;BME280;38044;45.148;39.604;2023-04-30T09:53:37;100571.94;;;22.33;47.71
52032;BME280;38044;45.148;39.604;2023-04-30T09:56:06;100707.44;;;22.43;46.47
52032;BME280;38044;45.148;39.604;2023-04-30T09:58:36;100661.22;;;21.69;47.48
52032;BME280;38044;45.148;39.604;2023-04-30T10:01:07;100686.41;;;22.01;45.91
52032;BME280;38044;45.148;39.604;2023-04-30T10:03:40;100687.50;;;21.73;45.98
52032;BME280;38044;45.148;39.604;2023-04-30T10:06:07;100686.97;;;21.45;46.90
52032;BME280;38044;45.148;39.604;2023-04-30T10:08:42;100692.69;;;21.20;47.24
52032;BME280;38044;45.148;39.604;2023-04-30T10:11:12;100690.53;;;21.10;48.62
52032;BME280;38044;45.148;39.604;2023-04-30T10:14:00;100686.94;;;21.64;47.96
52032;BME280;38044;45.148;39.604;2023-04-30T10:19:03;100564.13;;;20.74;49.38
52032;BME280;38044;45.148;39.604;2023-04-30T10:21:31;100678.91;;;21.52;48.45
52032;BME280;38044;45.148;39.604;2023-04-30T10:23:58;100668.38;;;21.34;47.46
52032;BME280;38044;45.148;39.604;2023-04-30T10:26:24;100579.94;;;21.04;48.72
52032;BME280;38044;45.148;39.604;2023-04-30T10:28:51;100650.50;;;21.83;47.14
52032;BME280;38044;45.148;39.604;2023-04-30T10:31:18;100633.06;;;21.68;45.45
52032;BME280;38044;45.148;39.604;2023-04-30T10:36:42;100712.03;;;22.12;46.53
52032;BME280;38044;45.148;39.604;2023-04-30T10:39:10;100680.75;;;21.48;46.50
52032;BME280;38044;45.148;39.604;2023-04-30T10:41:37;100668.25;;;21.27;48.20
52032;BME280;38044;45.148;39.604;2023-04-30T10:46:45;100684.19;;;20.86;47.77
52032;BME280;38044;45.148;39.604;2023-04-30T10:49:11;100697.13;;;20.54;46.47
52032;BME280;38044;45.148;39.604;2023-04-30T10:51:48;100621.97;;;19.93;47.55
52032;BME280;38044;45.148;39.604;2023-04-30T10:54:23;100710.84;;;20.42;47.12
52032;BME280;38044;45.148;39.604;2023-04-30T10:56:50;100712.28;;;20.04;48.13
52032;BME280;38044;45.148;39.604;2023-04-30T10:59:17;100686.63;;;19.77;48.75
52032;BME280;38044;45.148;39.604;2023-04-30T11:01:59;100707.44;;;19.97;48.48
52032;BME280;38044;45.148;39.604;2023-04-30T11:04:26;100677.69;;;19.92;47.27
52032;BME280;38044;45.148;39.604;2023-04-30T11:09:42;100717.19;;;20.46;47.16
52032;BME280;38044;45.148;39.604;2023-04-30T11:12:19;100715.53;;;20.41;47.92
52032;BME280;38044;45.148;39.604;2023-04-30T11:14:46;100683.72;;;20.33;47.25
52032;BME280;38044;45.148;39.604;2023-04-30T11:17:23;100689.97;;;20.50;47.14
52032;BME280;38044;45.148;39.604;2023-04-30T11:19:52;100505.06;;;18.84;47.98
52032;BME280;38044;45.148;39.604;2023-04-30T11:22:20;100691.66;;;19.91;47.98
52032;BME280;38044;45.148;39.604;2023-04-30T11:27:26;100562.81;;;19.50;45.84
52032;BME280;38044;45.148;39.604;2023-04-30T11:29:53;100680.47;;;20.43;47.29
52032;BME280;38044;45.148;39.604;2023-04-30T11:32:24;100696.44;;;20.92;47.26
52032;BME280;38044;45.148;39.604;2023-04-30T11:34:51;100673.59;;;20.50;44.74
52032;BME280;38044;45.148;39.604;2023-04-30T11:37:20;100651.88;;;19.74;46.64
52032;BME280;38044;45.148;39.604;2023-04-30T11:39:47;100527.25;;;18.58;47.78
52032;BME280;38044;45.148;39.604;2023-04-30T11:42:17;100669.00;;;19.30;47.15
52032;BME280;38044;45.148;39.604;2023-04-30T11:44:44;100709.41;;;19.28;48.25
52032;BME280;38044;45.148;39.604;2023-04-30T11:47:12;100651.13;;;19.05;48.88
52032;BME280;38044;45.148;39.604;2023-04-30T11:49:39;100642.41;;;18.99;49.77
52032;BME280;38044;45.148;39.604;2023-04-30T11:52:05;100682.84;;;19.53;48.96
52032;BME280;38044;45.148;39.604;2023-04-30T11:54:36;100640.38;;;19.52;46.99
52032;BME280;38044;45.148;39.604;2023-04-30T11:57:02;100686.72;;;19.80;45.49
52032;BME280;38044;45.148;39.604;2023-04-30T11:59:29;100659.09;;;19.38;47.21
52032;BME280;38044;45.148;39.604;2023-04-30T12:01:56;100631.44;;;19.24;48.72
52032;BME280;38044;45.148;39.604;2023-04-30T12:04:22;100654.63;;;19.18;47.43
52032;BME280;38044;45.148;39.604;2023-04-30T12:06:48;100654.00;;;18.96;49.44
52032;BME280;38044;45.148;39.604;2023-04-30T12:09:15;100545.38;;;18.26;48.32
52032;BME280;38044;45.148;39.604;2023-04-30T12:11:40;100669.97;;;19.10;49.52
52032;BME280;38044;45.148;39.604;2023-04-30T12:14:08;100680.63;;;19.15;49.08
52032;BME280;38044;45.148;39.604;2023-04-30T12:16:46;100625.75;;;18.88;49.86
52032;BME280;38044;45.148;39.604;2023-04-30T12:19:21;100671.16;;;19.25;47.92
52032;BME280;38044;45.148;39.604;2023-04-30T12:21:50;100676.44;;;19.18;50.61
52032;BME280;38044;45.148;39.604;2023-04-30T12:24:17;100632.53;;;19.07;49.92
52032;BME280;38044;45.148;39.604;2023-04-30T12:26:44;100653.00;;;19.29;49.73
52032;BME280;38044;45.148;39.604;2023-04-30T12:29:15;100671.44;;;19.64;48.65
52032;BME280;38044;45.148;39.604;2023-04-30T12:31:42;100648.50;;;19.21;48.49
52032;BME280;38044;45.148;39.604;2023-04-30T12:34:10;100549.06;;;18.46;48.38
52032;BME280;38044;45.148;39.604;2023-04-30T12:36:38;100639.06;;;18.90;48.02
52032;BME280;38044;45.148;39.604;2023-04-30T12:39:12;100688.72;;;19.11;48.46
52032;BME280;38044;45.148;39.604;2023-04-30T12:41:41;100557.41;;;18.13;47.60
52032;BME280;38044;45.148;39.604;2023-04-30T12:44:18;100676.72;;;19.00;49.59
52032;BME280;38044;45.148;39.604;2023-04-30T12:46:48;100663.53;;;19.02;47.58
52032;BME280;38044;45.148;39.604;2023-04-30T12:49:26;100701.13;;;19.25;46.66
52032;BME280;38044;45.148;39.604;2023-04-30T12:52:00;100591.72;;;18.42;48.50
52032;BME280;38044;45.148;39.604;2023-04-30T12:54:30;100606.19;;;18.58;47.55
52032;BME280;38044;45.148;39.604;2023-04-30T12:59:58;100701.03;;;19.21;50.19
52032;BME280;38044;45.148;39.604;2023-04-30T13:02:27;100712.41;;;19.23;47.87
52032;BME280;38044;45.148;39.604;2023-04-30T13:04:56;100720.13;;;19.21;47.40
52032;BME280;38044;45.148;39.604;2023-04-30T13:07:22;100656.91;;;18.63;49.91
52032;BME280;38044;45.148;39.604;2023-04-30T13:09:48;100668.13;;;18.61;47.62
52032;BME280;38044;45.148;39.604;2023-04-30T13:12:14;100573.59;;;17.85;49.99
52032;BME280;38044;45.148;39.604;2023-04-30T13:14:40;100719.63;;;18.54;48.86